createdAt,value
2019-04-21T00:00:17.026Z,40.50
2019-04-21T00:02:44.498Z,40.60
2019-04-21T00:05:35.190Z,40.30
2019-04-21T00:08:05.034Z,40.30
2019-04-21T00:10:28.418Z,40.20
2019-04-21T00:12:53.508Z,40.20
2019-04-21T00:15:18.154Z,40.30
2019-04-21T00:17:35.038Z,40.30
2019-04-21T00:20:17.612Z,40.20
2019-04-21T00:22:46.649Z,40.30
2019-04-21T00:25:16.623Z,40.50
2019-04-21T00:27:47.766Z,40.50
2019-04-21T00:30:16.672Z,40.40
2019-04-21T00:32:35.611Z,40.40
2019-04-21T00:35:00.913Z,40.50
2019-04-21T00:37:36.517Z,40.70
2019-04-21T00:40:09.451Z,40.70
2019-04-21T00:42:37.403Z,40.70
2019-04-21T00:45:05.967Z,40.80
2019-04-21T00:47:35.843Z,40.90
2019-04-21T00:50:06.258Z,40.90
2019-04-21T00:52:52.558Z,41.00
2019-04-21T00:55:27.674Z,41.20
2019-04-21T00:57:58.696Z,41.40
2019-04-21T01:00:20.207Z,41.70
2019-04-21T01:02:52.888Z,41.70
2019-04-21T01:05:16.673Z,41.80
2019-04-21T01:07:41.981Z,41.90
2019-04-21T01:10:03.887Z,42.30
2019-04-21T01:12:37.905Z,42.50
2019-04-21T01:15:15.041Z,42.70
2019-04-21T01:17:35.723Z,42.90
2019-04-21T01:19:57.456Z,43.00
2019-04-21T01:22:08.619Z,43.20
2019-04-21T01:24:40.023Z,43.20
2019-04-21T01:27:12.649Z,43.50
2019-04-21T01:29:53.908Z,43.50
2019-04-21T01:32:26.955Z,43.50
2019-04-21T01:34:47.070Z,44.10
2019-04-21T01:37:14.164Z,43.60
2019-04-21T01:39:46.953Z,43.60
2019-04-21T01:42:09.219Z,43.70
2019-04-21T01:44:43.065Z,43.80
2019-04-21T01:47:02.857Z,44.10
2019-04-21T01:49:26.436Z,44.00
2019-04-21T01:52:22.212Z,44.30
2019-04-21T01:54:55.820Z,44.30
2019-04-21T01:57:25.910Z,44.40
2019-04-21T01:59:45.750Z,44.50
2019-04-21T02:02:23.029Z,45.10
2019-04-21T02:04:57.306Z,44.60
2019-04-21T02:07:15.851Z,44.70
2019-04-21T02:09:42.043Z,44.90
2019-04-21T02:12:14.769Z,44.90
2019-04-21T02:14:50.582Z,44.80
2019-04-21T02:17:14.722Z,44.90
2019-04-21T02:19:31.322Z,44.90
2019-04-21T02:21:59.335Z,45.00
2019-04-21T02:24:42.737Z,45.30
2019-04-21T02:27:08.580Z,45.30
2019-04-21T02:29:37.661Z,45.40
2019-04-21T02:32:11.325Z,45.50
2019-04-21T02:34:40.919Z,45.80
2019-04-21T02:44:37.575Z,45.80
2019-04-21T02:47:19.085Z,45.80
2019-04-21T02:49:37.354Z,45.70
2019-04-21T02:52:06.188Z,45.90
2019-04-21T02:57:01.602Z,46.20
2019-04-21T02:59:28.539Z,46.30
2019-04-21T03:04:49.513Z,46.40
2019-04-21T03:07:17.881Z,46.50
2019-04-21T03:09:47.644Z,46.70
2019-04-21T03:12:22.100Z,46.70
2019-04-21T03:17:14.605Z,46.90
2019-04-21T03:19:45.189Z,46.80
2019-04-21T03:22:14.518Z,46.70
2019-04-21T03:27:18.614Z,46.60
2019-04-21T03:32:33.161Z,46.60
2019-04-21T03:37:19.138Z,46.70
2019-04-21T03:39:29.091Z,46.90
2019-04-21T03:42:00.218Z,47.00
2019-04-21T03:44:24.727Z,47.10
2019-04-21T03:46:52.639Z,47.10
2019-04-21T03:49:27.819Z,47.40
2019-04-21T03:51:47.547Z,47.50
2019-04-21T03:54:13.714Z,47.60
2019-04-21T03:59:07.399Z,47.70
2019-04-21T04:01:40.650Z,47.60
2019-04-21T04:04:24.499Z,47.70
2019-04-21T04:09:31.381Z,48.10
2019-04-21T04:17:06.104Z,48.80
2019-04-21T04:19:22.353Z,48.80
2019-04-21T04:21:47.632Z,49.00
2019-04-21T04:26:39.531Z,49.30
2019-04-21T04:29:19.178Z,49.50
2019-04-21T04:34:04.758Z,49.70
2019-04-21T04:39:42.800Z,50.00
2019-04-21T04:42:12.576Z,50.50
2019-04-21T04:54:40.082Z,50.40
2019-04-21T04:56:58.597Z,50.40
2019-04-21T04:59:41.454Z,50.40
2019-04-21T05:04:23.813Z,50.60
2019-04-21T05:14:21.819Z,50.90
2019-04-21T05:21:34.409Z,51.40
2019-04-21T05:23:51.203Z,51.40
2019-04-21T05:26:14.945Z,51.30
2019-04-21T05:28:43.645Z,51.40
2019-04-21T05:31:33.060Z,51.20
2019-04-21T05:34:07.479Z,51.40
2019-04-21T05:36:44.640Z,51.50
2019-04-21T05:39:24.831Z,51.50
2019-04-21T05:41:47.797Z,51.60
2019-04-21T05:44:35.499Z,51.80
2019-04-21T05:47:08.110Z,51.80
2019-04-21T05:49:49.934Z,51.80
2019-04-21T05:52:13.252Z,51.70
2019-04-21T05:54:52.770Z,51.80
2019-04-21T05:57:09.931Z,51.70
2019-04-21T05:59:48.000Z,51.60
2019-04-21T06:07:18.975Z,51.50
2019-04-21T06:09:43.898Z,51.30
2019-04-21T06:12:08.919Z,51.30
2019-04-21T06:14:37.224Z,51.10
2019-04-21T06:17:13.128Z,50.90
2019-04-21T06:19:36.760Z,51.00
2019-04-21T06:21:57.138Z,51.00
2019-04-21T06:24:40.729Z,50.90
2019-04-21T06:29:29.787Z,50.70
2019-04-21T06:34:24.416Z,50.80
2019-04-21T06:36:57.331Z,50.90
2019-04-21T06:41:49.231Z,50.90
2019-04-21T06:44:38.871Z,50.70
2019-04-21T06:46:45.908Z,50.90
2019-04-21T06:49:13.387Z,51.10
2019-04-21T06:51:43.343Z,50.80
2019-04-21T06:59:22.162Z,49.60
2019-04-21T07:01:44.578Z,49.60
2019-04-21T07:04:11.240Z,49.20
2019-04-21T07:06:35.581Z,49.20
2019-04-21T07:09:13.457Z,48.90
2019-04-21T07:11:25.572Z,48.50
2019-04-21T07:14:13.476Z,49.00
2019-04-21T07:16:25.710Z,48.30
2019-04-21T07:19:03.988Z,48.60
2019-04-21T07:21:21.918Z,48.20
2019-04-21T07:23:53.855Z,48.10
2019-04-21T07:26:23.775Z,47.90
2019-04-21T07:28:47.961Z,47.50
2019-04-21T07:31:31.723Z,47.00
2019-04-21T07:33:53.914Z,46.50
2019-04-21T07:36:20.041Z,46.40
2019-04-21T07:38:34.056Z,46.10
2019-04-21T07:40:59.685Z,46.00
2019-04-21T07:43:30.044Z,46.00
2019-04-21T07:45:52.482Z,45.90
2019-04-21T07:48:35.863Z,45.80
2019-04-21T07:51:17.379Z,45.50
2019-04-21T07:53:53.335Z,45.00
2019-04-21T07:55:59.544Z,44.50
2019-04-21T07:58:47.731Z,44.30
2019-04-21T08:01:11.739Z,44.20
2019-04-21T08:03:38.886Z,43.70
2019-04-21T08:06:13.883Z,43.60
2019-04-21T08:08:34.232Z,43.60
2019-04-21T08:11:02.926Z,43.50
2019-04-21T08:13:39.245Z,43.00
2019-04-21T08:16:03.101Z,42.80
2019-04-21T08:18:28.642Z,42.60
2019-04-21T08:20:53.428Z,42.30
2019-04-21T08:23:29.696Z,41.80
2019-04-21T08:26:03.257Z,41.60
2019-04-21T08:28:21.348Z,41.20
2019-04-21T08:30:47.806Z,40.80
2019-04-21T08:33:24.906Z,40.40
2019-04-21T08:36:07.128Z,40.30
2019-04-21T08:38:15.061Z,39.60
2019-04-21T08:40:45.693Z,39.20
2019-04-21T08:43:14.291Z,39.00
2019-04-21T08:45:41.603Z,38.50
2019-04-21T08:48:05.905Z,38.20
2019-04-21T08:50:30.887Z,38.10
2019-04-21T08:53:02.362Z,37.40
2019-04-21T08:55:37.576Z,37.20
2019-04-21T09:00:40.239Z,36.50
2019-04-21T09:03:11.720Z,36.20
2019-04-21T09:05:37.799Z,36.00
2019-04-21T09:08:06.767Z,35.60
2019-04-21T09:10:37.357Z,35.40
2019-04-21T09:12:58.926Z,35.40
2019-04-21T09:15:24.905Z,34.80
2019-04-21T09:17:49.182Z,34.50
2019-04-21T09:20:31.082Z,33.90
2019-04-21T09:22:54.235Z,33.70
2019-04-21T09:25:26.963Z,33.20
2019-04-21T09:27:53.724Z,33.00
2019-04-21T09:30:06.912Z,32.90
2019-04-21T09:32:36.344Z,32.30
2019-04-21T09:35:07.287Z,32.20
2019-04-21T09:37:43.488Z,31.90
2019-04-21T09:40:00.891Z,31.60
2019-04-21T09:42:36.018Z,31.00
2019-04-21T09:44:59.403Z,30.20
2019-04-21T09:47:33.620Z,30.40
2019-04-21T09:49:51.971Z,30.70
2019-04-21T09:52:20.904Z,30.70
2019-04-21T09:54:56.483Z,30.40
2019-04-21T09:57:26.419Z,30.30
2019-04-21T09:59:49.046Z,30.30
2019-04-21T10:02:17.483Z,30.20
2019-04-21T10:04:39.964Z,29.40
2019-04-21T10:07:06.835Z,28.40
2019-04-21T10:09:33.382Z,27.60
2019-04-21T10:12:00.837Z,27.40
2019-04-21T10:14:28.599Z,27.20
2019-04-21T10:17:15.019Z,27.00
2019-04-21T10:19:41.986Z,26.60
2019-04-21T10:22:08.513Z,26.30
2019-04-21T10:24:35.045Z,26.20
2019-04-21T10:27:04.132Z,26.30
2019-04-21T10:29:32.967Z,26.20
2019-04-21T10:31:59.598Z,26.10
2019-04-21T10:34:27.271Z,25.70
2019-04-21T10:36:53.607Z,25.80
2019-04-21T10:39:19.992Z,25.80
2019-04-21T10:41:47.627Z,25.80
2019-04-21T10:44:14.074Z,26.00
2019-04-21T10:46:40.578Z,25.80
2019-04-21T10:49:07.046Z,25.50
2019-04-21T10:51:33.182Z,25.60
2019-04-21T10:53:59.829Z,25.30
2019-04-21T10:56:32.635Z,25.30
2019-04-21T10:58:54.255Z,25.10
2019-04-21T11:01:23.209Z,24.60
2019-04-21T11:04:00.714Z,24.60
2019-04-21T11:06:28.591Z,24.40
2019-04-21T11:08:57.183Z,24.80
2019-04-21T11:11:23.868Z,24.60
2019-04-21T11:13:50.623Z,24.20
2019-04-21T11:16:17.302Z,24.10
2019-04-21T11:18:44.123Z,24.20
2019-04-21T11:21:11.182Z,24.20
2019-04-21T11:23:37.590Z,24.20
2019-04-21T11:26:04.394Z,24.10
2019-04-21T11:28:31.195Z,24.00
2019-04-21T11:30:57.559Z,24.00
2019-04-21T11:33:24.945Z,23.40
2019-04-21T11:35:51.306Z,23.70
2019-04-21T11:38:23.622Z,23.80
2019-04-21T11:40:47.644Z,23.70
2019-04-21T11:43:13.887Z,23.30
2019-04-21T11:45:40.345Z,23.10
2019-04-21T11:48:26.078Z,23.30
2019-04-21T11:50:53.204Z,23.30
2019-04-21T11:53:20.931Z,22.90
2019-04-21T11:55:50.140Z,22.80
2019-04-21T11:58:15.992Z,23.10
2019-04-21T12:00:43.684Z,22.80
2019-04-21T12:03:12.398Z,22.30
2019-04-21T12:05:39.405Z,22.40
2019-04-21T12:08:17.684Z,22.40
2019-04-21T12:10:33.816Z,22.30
2019-04-21T12:13:01.368Z,22.30
2019-04-21T12:15:29.188Z,21.90
2019-04-21T12:17:56.463Z,21.70
2019-04-21T12:20:24.320Z,21.70
2019-04-21T12:22:50.900Z,21.70
2019-04-21T12:25:19.070Z,21.50
2019-04-21T12:27:45.710Z,21.40
2019-04-21T12:30:13.686Z,21.20
2019-04-21T12:32:53.940Z,20.90
2019-04-21T12:35:20.195Z,20.80
2019-04-21T12:37:46.893Z,20.10
2019-04-21T12:40:14.746Z,20.40
2019-04-21T12:42:42.378Z,20.60
2019-04-21T12:45:10.627Z,20.80
2019-04-21T12:47:37.776Z,20.50
2019-04-21T12:50:06.808Z,20.50
2019-04-21T12:52:33.744Z,20.50
2019-04-21T12:54:59.971Z,20.60
2019-04-21T12:57:28.665Z,20.40
2019-04-21T12:59:54.980Z,20.40
2019-04-21T13:02:21.969Z,20.40
2019-04-21T13:04:50.614Z,20.20
2019-04-21T13:07:17.385Z,20.40
2019-04-21T13:09:44.298Z,20.50
2019-04-21T13:12:11.225Z,20.40
2019-04-21T13:14:37.899Z,20.20
2019-04-21T13:17:05.652Z,19.80
2019-04-21T13:19:33.435Z,20.00
2019-04-21T13:22:01.453Z,20.10
2019-04-21T13:24:27.865Z,19.80
2019-04-21T13:26:59.491Z,19.80
2019-04-21T13:29:22.140Z,19.70
2019-04-21T13:31:50.026Z,19.30
2019-04-21T13:34:17.907Z,19.40
2019-04-21T13:36:45.546Z,18.70
2019-04-21T13:39:52.255Z,18.90
2019-04-21T13:42:02.760Z,18.90
2019-04-21T13:44:21.481Z,18.50
2019-04-21T13:46:49.174Z,18.50
2019-04-21T13:49:17.239Z,18.40
2019-04-21T13:51:44.093Z,18.80
2019-04-21T13:54:11.467Z,18.70
2019-04-21T13:56:38.552Z,18.90
2019-04-21T13:59:06.492Z,19.00
2019-04-21T14:01:33.951Z,19.70
2019-04-21T14:04:03.180Z,20.40
2019-04-21T14:06:30.148Z,20.60
2019-04-21T14:08:56.978Z,20.50
2019-04-21T14:11:23.653Z,20.80
2019-04-21T14:13:50.426Z,20.80
2019-04-21T14:16:18.116Z,20.80
2019-04-21T14:18:45.558Z,21.00
2019-04-21T14:21:13.256Z,20.70
2019-04-21T14:23:44.659Z,20.20
2019-04-21T14:26:08.683Z,20.50
2019-04-21T14:28:34.939Z,21.00
2019-04-21T14:31:02.262Z,21.40
2019-04-21T14:33:29.787Z,21.70
2019-04-21T14:35:56.903Z,22.30
2019-04-21T14:38:24.815Z,21.90
2019-04-21T14:40:52.122Z,21.50
2019-04-21T14:43:20.463Z,21.30
2019-04-21T14:46:01.019Z,21.10
2019-04-21T14:48:29.560Z,21.00
2019-04-21T14:51:06.834Z,21.30
2019-04-21T14:53:51.919Z,21.60
2019-04-21T14:56:19.332Z,21.80
2019-04-21T14:58:46.879Z,21.50
2019-04-21T15:01:13.688Z,21.50
2019-04-21T15:03:41.593Z,21.50
2019-04-21T15:06:09.377Z,22.00
2019-04-21T15:08:35.690Z,21.70
2019-04-21T15:11:03.232Z,21.70
2019-04-21T15:13:30.037Z,22.00
2019-04-21T15:15:56.668Z,22.10
2019-04-21T15:18:23.018Z,22.40
2019-04-21T15:20:50.555Z,22.50
2019-04-21T15:23:18.004Z,23.00
2019-04-21T15:25:45.929Z,22.70
2019-04-21T15:28:13.722Z,23.20
2019-04-21T15:30:40.771Z,22.50
2019-04-21T15:33:08.485Z,22.70
2019-04-21T15:35:35.332Z,23.30
2019-04-21T15:38:04.275Z,23.50
2019-04-21T15:40:40.627Z,23.40
2019-04-21T15:43:00.074Z,23.40
2019-04-21T15:45:26.727Z,23.80
2019-04-21T15:47:53.946Z,23.50
2019-04-21T15:50:21.905Z,23.20
2019-04-21T15:52:49.769Z,23.20
2019-04-21T15:55:34.907Z,23.20
2019-04-21T15:58:04.760Z,22.90
2019-04-21T16:00:34.211Z,23.00
2019-04-21T16:03:04.525Z,23.10
2019-04-21T16:05:30.913Z,23.20
2019-04-21T16:07:58.196Z,23.40
2019-04-21T16:10:34.423Z,23.50
2019-04-21T16:12:53.866Z,24.00
2019-04-21T16:15:20.782Z,24.30
2019-04-21T16:17:47.583Z,24.90
2019-04-21T16:20:15.494Z,25.30
2019-04-21T16:22:42.338Z,26.00
2019-04-21T16:25:08.886Z,26.50
2019-04-21T16:27:35.218Z,26.90
2019-04-21T16:30:07.822Z,27.20
2019-04-21T16:32:34.444Z,27.60
2019-04-21T16:35:05.315Z,28.00
2019-04-21T16:37:29.782Z,28.20
2019-04-21T16:39:56.182Z,28.50
2019-04-21T16:42:22.692Z,28.60
2019-04-21T16:44:49.265Z,28.80
2019-04-21T16:47:15.587Z,29.00
2019-04-21T16:49:41.832Z,29.20
2019-04-21T16:52:13.970Z,29.50
2019-04-21T16:54:42.423Z,29.60
2019-04-21T16:57:17.635Z,29.70
2019-04-21T16:59:46.551Z,29.90
2019-04-21T17:02:12.829Z,30.00
2019-04-21T17:04:40.265Z,30.30
2019-04-21T17:07:07.374Z,30.30
2019-04-21T17:09:34.697Z,30.20
2019-04-21T17:12:05.555Z,30.20
2019-04-21T17:14:48.196Z,30.00
2019-04-21T17:17:19.089Z,30.10
2019-04-21T17:19:29.845Z,30.40
2019-04-21T17:21:53.390Z,30.60
2019-04-21T17:24:20.177Z,30.80
2019-04-21T17:26:48.193Z,30.90
2019-04-21T17:29:14.708Z,30.90
2019-04-21T17:31:41.440Z,30.90
2019-04-21T17:34:13.716Z,30.90
2019-04-21T17:36:37.142Z,31.30
2019-04-21T17:39:05.026Z,31.50
2019-04-21T17:41:40.968Z,31.70
2019-04-21T17:44:00.413Z,31.90
2019-04-21T17:46:36.853Z,32.20
2019-04-21T17:48:54.831Z,32.50
2019-04-21T17:51:23.444Z,31.70
2019-04-21T17:53:55.130Z,31.10
2019-04-21T17:56:51.087Z,30.80
2019-04-21T17:59:06.185Z,30.50
2019-04-21T18:01:40.629Z,30.10
2019-04-21T18:04:12.594Z,30.00
2019-04-21T18:06:40.713Z,29.90
2019-04-21T18:09:15.553Z,29.50
2019-04-21T18:11:39.562Z,29.40
2019-04-21T18:13:47.188Z,29.50
2019-04-21T18:16:26.834Z,29.60
2019-04-21T18:18:41.625Z,29.80
2019-04-21T18:21:16.616Z,29.80
2019-04-21T18:23:54.192Z,29.70
2019-04-21T18:26:24.704Z,29.80
2019-04-21T18:28:41.030Z,29.90
2019-04-21T18:31:12.258Z,29.70
2019-04-21T18:33:43.229Z,29.90
2019-04-21T18:36:13.433Z,29.90
2019-04-21T18:39:06.950Z,30.00
2019-04-21T18:41:19.716Z,30.00
2019-04-21T18:46:58.665Z,30.10
2019-04-21T18:49:15.341Z,30.20
2019-04-21T18:51:58.780Z,30.20
2019-04-21T18:54:36.078Z,30.20
2019-04-21T18:56:59.131Z,30.60
2019-04-21T18:59:12.478Z,30.80
2019-04-21T19:01:40.329Z,30.60
2019-04-21T19:04:14.382Z,30.80
2019-04-21T19:06:54.525Z,30.80
2019-04-21T19:09:24.899Z,31.20
2019-04-21T19:11:51.830Z,31.00
2019-04-21T19:17:29.182Z,31.70
2019-04-21T19:21:55.262Z,32.00
2019-04-21T19:24:28.156Z,32.00
2019-04-21T19:26:52.467Z,32.50
2019-04-21T19:29:20.052Z,32.20
2019-04-21T19:31:48.230Z,32.20
2019-04-21T19:34:02.035Z,32.80
2019-04-21T19:36:21.523Z,32.80
2019-04-21T19:38:58.355Z,33.10
2019-04-21T19:41:32.458Z,33.20
2019-04-21T19:44:03.653Z,33.70
2019-04-21T19:46:27.843Z,33.40
2019-04-21T19:49:04.289Z,33.50
2019-04-21T19:51:22.026Z,33.60
2019-04-21T19:53:51.627Z,33.80
2019-04-21T19:56:05.980Z,33.60
2019-04-21T19:58:36.947Z,33.50
2019-04-21T20:01:01.652Z,33.30
2019-04-21T20:03:28.467Z,33.30
2019-04-21T20:06:05.943Z,33.40
2019-04-21T20:08:36.219Z,33.50
2019-04-21T20:11:10.483Z,33.90
2019-04-21T20:13:56.896Z,34.10
2019-04-21T20:16:07.979Z,34.20
2019-04-21T20:18:26.191Z,34.30
2019-04-21T20:20:43.855Z,34.20
2019-04-21T20:23:19.235Z,34.60
2019-04-21T20:25:45.320Z,35.00
2019-04-21T20:28:17.385Z,34.90
2019-04-21T20:30:56.037Z,34.70
2019-04-21T20:33:45.766Z,34.90
2019-04-21T20:38:12.535Z,35.60
2019-04-21T20:40:39.963Z,35.80
2019-04-21T20:43:16.440Z,35.90
2019-04-21T20:45:59.273Z,36.10
2019-04-21T20:47:55.704Z,35.90
2019-04-21T20:50:33.384Z,35.90
2019-04-21T20:53:04.775Z,36.70
2019-04-21T20:55:26.498Z,36.30
2019-04-21T20:57:53.703Z,36.30
2019-04-21T21:00:29.931Z,36.70
2019-04-21T21:03:02.739Z,36.80
2019-04-21T21:05:23.332Z,37.00
2019-04-21T21:07:57.040Z,37.00
2019-04-21T21:10:21.756Z,36.80
2019-04-21T21:12:58.877Z,36.90
2019-04-21T21:15:22.790Z,37.40
2019-04-21T21:18:01.526Z,37.60
2019-04-21T21:20:24.579Z,37.80
2019-04-21T21:22:46.838Z,38.10
2019-04-21T21:25:29.227Z,38.10
2019-04-21T21:27:41.801Z,38.00
2019-04-21T21:30:10.030Z,38.10
2019-04-21T21:32:47.790Z,38.10
2019-04-21T21:35:10.339Z,38.30
2019-04-21T21:37:44.327Z,38.60
2019-04-21T21:40:11.172Z,38.60
2019-04-21T21:42:23.137Z,39.00
2019-04-21T21:44:52.052Z,38.50
2019-04-21T21:47:24.114Z,38.60
2019-04-21T21:49:52.830Z,38.50
2019-04-21T21:52:22.209Z,38.70
2019-04-21T21:54:37.950Z,38.50
2019-04-21T21:57:04.872Z,38.70
2019-04-21T21:59:34.824Z,38.80
2019-04-21T22:02:00.225Z,39.10
2019-04-21T22:04:31.783Z,39.20
2019-04-21T22:07:02.545Z,39.20
2019-04-21T22:09:24.229Z,38.90
2019-04-21T22:11:56.558Z,39.00
2019-04-21T22:14:25.986Z,39.20
2019-04-21T22:16:59.375Z,39.90
2019-04-21T22:19:33.595Z,40.20
2019-04-21T22:22:00.949Z,40.50
2019-04-21T22:24:29.512Z,40.50
2019-04-21T22:26:39.020Z,40.60
2019-04-21T22:29:05.644Z,41.00
2019-04-21T22:31:35.502Z,41.10
2019-04-21T22:34:05.213Z,41.00
2019-04-21T22:36:42.668Z,40.60
2019-04-21T22:39:13.337Z,40.50
2019-04-21T22:41:31.019Z,40.30
2019-04-21T22:43:55.230Z,40.30
2019-04-21T22:46:20.258Z,40.40
2019-04-21T22:48:55.938Z,40.30
2019-04-21T22:51:23.977Z,40.50
2019-04-21T22:53:47.223Z,40.50
2019-04-21T22:56:17.652Z,40.40
2019-04-21T22:58:42.241Z,40.50
2019-04-21T23:01:09.653Z,40.60
2019-04-21T23:03:42.568Z,40.90
2019-04-21T23:06:09.731Z,40.80
2019-04-21T23:08:36.980Z,40.80
2019-04-21T23:11:04.999Z,41.00
2019-04-21T23:13:29.313Z,41.10
2019-04-21T23:15:58.800Z,41.10
2019-04-21T23:18:40.115Z,41.40
2019-04-21T23:21:10.652Z,41.50
2019-04-21T23:23:44.094Z,41.30
2019-04-21T23:26:09.065Z,41.40
2019-04-21T23:28:40.568Z,41.00
2019-04-21T23:31:09.848Z,41.00
2019-04-21T23:33:19.192Z,41.20
2019-04-21T23:35:45.722Z,41.20
2019-04-21T23:38:12.377Z,41.10
2019-04-21T23:40:41.922Z,40.90
2019-04-21T23:43:11.441Z,40.90
2019-04-21T23:45:38.255Z,40.90
2019-04-21T23:48:19.723Z,40.90
2019-04-21T23:50:41.882Z,41.00
2019-04-21T23:52:59.422Z,41.20
2019-04-21T23:55:27.236Z,41.20
2019-04-21T23:58:04.962Z,41.30
